Time;durP1;ratioP1;P1;durP2;ratioP2;P2;SDS_P1;SDS_P2;PMS_P1;PMS_P2;Temp;Humidity;BMP_temperature;BMP_pressure;BME280_temperature;BME280_humidity;BME280_pressure;Samples;Min_cycle;Max_cycle;Signal;HPM_P1;HPM_P2
2022/09/06 00:00:33;;;;;;;3.05;2.25;;;20.10;99.90;;;;;;5052807;28;20102;-77
2022/09/06 00:02:59;;;;;;;4.15;2.20;;;20.20;99.90;;;;;;5053083;28;20025;-77
2022/09/06 00:05:27;;;;;;;11.45;2.53;;;20.10;99.90;;;;;;5053056;28;20029;-78
2022/09/06 00:07:53;;;;;;;4.72;2.05;;;20.10;99.90;;;;;;5053085;28;20040;-78
2022/09/06 00:10:18;;;;;;;3.45;2.17;;;20.10;99.90;;;;;;5052739;28;20029;-78
2022/09/06 00:12:44;;;;;;;3.55;2.47;;;20.20;99.90;;;;;;5052810;28;20025;-78
2022/09/06 00:15:10;;;;;;;4.55;2.38;;;20.50;99.90;;;;;;5051482;28;20032;-78
2022/09/06 00:17:36;;;;;;;6.22;2.30;;;20.80;99.90;;;;;;5051434;28;20028;-78
2022/09/06 00:20:04;;;;;;;4.25;2.75;;;20.60;99.90;;;;;;5068442;28;20045;-78
2022/09/06 00:22:29;;;;;;;3.92;2.95;;;20.70;99.90;;;;;;5067512;28;20044;-78
2022/09/06 00:24:56;;;;;;;6.40;2.90;;;20.60;99.90;;;;;;5052680;28;20024;-78
2022/09/06 00:27:21;;;;;;;3.00;2.50;;;20.80;99.90;;;;;;5052845;28;20035;-78
2022/09/06 00:29:47;;;;;;;7.10;2.88;;;20.80;99.90;;;;;;5051167;28;20100;-78
2022/09/06 00:32:13;;;;;;;2.78;2.58;;;20.50;99.90;;;;;;5052682;28;20052;-78
2022/09/06 00:34:39;;;;;;;4.63;2.67;;;20.30;99.90;;;;;;5052600;28;20020;-78
2022/09/06 00:37:04;;;;;;;6.03;3.15;;;20.40;99.90;;;;;;5051408;28;20029;-78
2022/09/06 00:39:30;;;;;;;6.70;2.92;;;20.50;99.90;;;;;;5051088;28;20040;-78
2022/09/06 00:41:56;;;;;;;4.60;2.97;;;20.40;99.90;;;;;;5040999;28;20068;-77
2022/09/06 00:44:22;;;;;;;4.30;3.28;;;20.40;99.90;;;;;;5051150;28;20029;-77
2022/09/06 00:46:49;;;;;;;4.30;3.30;;;20.30;99.90;;;;;;5051657;28;20025;-78
2022/09/06 00:49:24;;;;;;;5.72;3.53;;;20.50;99.90;;;;;;5051372;28;20024;-77
2022/09/06 00:52:18;;;;;;;6.80;3.40;;;20.90;99.90;;;;;;5051174;28;20112;-78
2022/09/06 00:54:45;;;;;;;5.70;3.35;;;21.20;99.90;;;;;;5050380;28;20036;-78
2022/09/06 00:57:13;;;;;;;5.63;3.47;;;20.90;99.90;;;;;;5052373;28;20029;-78
2022/09/06 00:59:41;;;;;;;6.30;3.08;;;20.70;99.90;;;;;;5052056;28;20065;-78
2022/09/06 01:02:08;;;;;;;7.22;3.50;;;20.70;99.90;;;;;;5052061;28;20108;-78
2022/09/06 01:04:36;;;;;;;6.60;3.50;;;20.80;99.90;;;;;;5050941;28;20014;-78
2022/09/06 01:07:32;;;;;;;5.38;3.42;;;20.80;99.90;;;;;;5052357;28;20036;-78
2022/09/06 01:10:19;;;;;;;10.05;3.58;;;20.70;99.90;;;;;;5052077;28;20532;-78
2022/09/06 01:13:23;;;;;;;11.75;3.72;;;20.50;99.90;;;;;;5051940;28;20017;-77
2022/09/06 01:15:58;;;;;;;7.40;3.70;;;20.60;99.90;;;;;;5045731;28;20052;-78
2022/09/06 01:18:42;;;;;;;5.82;3.47;;;20.40;99.90;;;;;;5052136;28;20029;-78
2022/09/06 01:21:31;;;;;;;7.65;3.25;;;20.50;99.90;;;;;;5067434;28;20041;-77
2022/09/06 01:24:38;;;;;;;5.18;3.75;;;20.30;99.90;;;;;;5051994;28;20545;-78
2022/09/06 01:27:12;;;;;;;4.80;3.88;;;20.00;99.90;;;;;;4981333;28;20138;-78
2022/09/06 01:29:50;;;;;;;6.90;3.50;;;20.50;99.90;;;;;;4990551;28;20130;-78
2022/09/06 01:32:27;;;;;;;5.85;3.13;;;20.40;99.90;;;;;;5027498;28;20037;-78
2022/09/06 01:35:13;;;;;;;4.93;3.35;;;20.20;99.90;;;;;;5037793;28;20031;-78
2022/09/06 01:37:38;;;;;;;6.47;4.00;;;20.30;99.90;;;;;;5071378;28;20124;-78
2022/09/06 01:40:05;;;;;;;6.40;4.13;;;20.30;99.90;;;;;;5055505;28;20112;-77
2022/09/06 01:42:34;;;;;;;9.60;4.43;;;20.40;99.90;;;;;;5055561;28;20025;-77
2022/09/06 01:45:11;;;;;;;6.93;4.13;;;20.50;99.90;;;;;;5055396;28;20021;-77
2022/09/06 01:47:39;;;;;;;5.55;4.20;;;20.30;99.90;;;;;;5055557;28;20477;-78
2022/09/06 01:50:31;;;;;;;5.25;3.90;;;20.20;99.90;;;;;;5054111;28;20025;-77
2022/09/06 01:53:29;;;;;;;10.57;4.47;;;20.30;99.90;;;;;;5054896;28;20041;-77
2022/09/06 01:56:19;;;;;;;7.07;3.90;;;20.20;99.90;;;;;;5045657;28;20111;-77
2022/09/06 01:59:21;;;;;;;5.70;4.15;;;19.90;99.90;;;;;;5055426;28;20037;-77
2022/09/06 02:01:55;;;;;;;4.90;4.10;;;19.80;99.90;;;;;;5042149;28;20053;-77
2022/09/06 02:04:50;;;;;;;5.32;3.63;;;19.90;99.90;;;;;;5055130;28;20398;-77
2022/09/06 02:07:24;;;;;;;8.95;4.13;;;19.90;99.90;;;;;;5049347;28;20041;-77
2022/09/06 02:10:13;;;;;;;7.60;4.40;;;20.00;99.90;;;;;;5054908;28;20082;-77
2022/09/06 02:12:42;;;;;;;7.13;3.83;;;20.00;99.90;;;;;;5055171;28;20021;-77
2022/09/06 02:15:13;;;;;;;9.48;4.50;;;20.00;99.90;;;;;;5055058;28;20052;-78
2022/09/06 02:17:41;;;;;;;;;;;19.70;99.90;;;;;;5054304;28;20035;-78
2022/09/06 02:20:30;;;;;;;7.75;4.72;;;19.90;99.90;;;;;;5053641;28;19917;-77
2022/09/06 02:23:00;;;;;;;14.27;5.45;;;19.90;99.90;;;;;;5041183;28;20377;-77
2022/09/06 02:25:32;;;;;;;7.93;4.85;;;20.00;99.90;;;;;;5054632;28;20029;-77
2022/09/06 02:27:58;;;;;;;12.52;5.20;;;19.80;99.90;;;;;;5054814;28;20098;-77
2022/09/06 02:30:24;;;;;;;11.27;5.88;;;19.90;99.90;;;;;;5053584;28;20457;-77
2022/09/06 02:33:00;;;;;;;8.25;5.07;;;19.70;99.90;;;;;;5054689;28;20017;-77
2022/09/06 02:35:26;;;;;;;7.15;5.15;;;19.60;99.90;;;;;;5054928;28;20029;-77
2022/09/06 02:37:52;;;;;;;10.20;5.68;;;19.30;99.90;;;;;;5053796;28;20554;-77
2022/09/06 02:40:19;;;;;;;9.23;5.20;;;19.30;99.90;;;;;;5054196;28;20040;-77
2022/09/06 02:42:45;;;;;;;5.60;4.47;;;19.40;99.90;;;;;;5053190;28;20029;-77
2022/09/06 02:45:10;;;;;;;7.22;4.72;;;19.30;99.90;;;;;;5069375;28;20036;-77
2022/09/06 02:47:36;;;;;;;7.15;5.13;;;19.40;99.90;;;;;;5062975;28;20028;-77
2022/09/06 02:50:02;;;;;;;9.35;5.18;;;19.50;99.90;;;;;;5054233;28;20032;-77
2022/09/06 02:52:28;;;;;;;15.10;5.72;;;19.50;99.90;;;;;;5054486;28;20075;-77
2022/09/06 02:54:54;;;;;;;8.23;5.07;;;19.60;99.90;;;;;;5054009;28;20038;-77
2022/09/06 02:57:19;;;;;;;8.38;4.65;;;19.50;99.90;;;;;;5054170;28;20401;-77
2022/09/06 02:59:45;;;;;;;10.18;4.70;;;19.30;99.90;;;;;;5054216;28;20036;-77
2022/09/06 03:02:11;;;;;;;7.63;5.30;;;19.40;99.90;;;;;;5054084;28;20104;-77
2022/09/06 03:04:37;;;;;;;7.30;4.97;;;19.30;99.90;;;;;;5054115;28;20033;-77
2022/09/06 03:07:03;;;;;;;9.85;4.95;;;19.20;99.90;;;;;;5053945;28;20033;-77
2022/09/06 03:09:28;;;;;;;8.68;5.10;;;19.30;99.90;;;;;;5052718;28;20072;-77
2022/09/06 03:11:54;;;;;;;9.23;4.97;;;19.20;99.90;;;;;;5053845;28;20021;-77
2022/09/06 03:14:20;;;;;;;9.90;5.07;;;19.10;99.90;;;;;;5052814;28;20021;-77
2022/09/06 03:16:46;;;;;;;8.20;4.80;;;19.20;99.90;;;;;;5053831;28;20033;-77
2022/09/06 03:19:11;;;;;;;8.93;4.80;;;19.30;99.90;;;;;;5053911;28;20033;-77
2022/09/06 03:21:37;;;;;;;8.10;4.93;;;19.10;99.90;;;;;;5053900;28;20036;-77
2022/09/06 03:24:03;;;;;;;9.90;6.60;;;19.20;99.90;;;;;;5053421;28;20469;-77
2022/09/06 03:26:29;;;;;;;11.63;8.20;;;19.20;99.90;;;;;;5052483;28;20036;-77
2022/09/06 03:28:55;;;;;;;12.50;9.82;;;19.30;99.90;;;;;;5053659;28;20061;-77
2022/09/06 03:31:21;;;;;;;12.93;9.63;;;19.30;99.90;;;;;;5053740;28;20065;-76
2022/09/06 03:33:47;;;;;;;11.05;7.97;;;19.10;99.90;;;;;;5052372;28;20055;-78
2022/09/06 03:36:12;;;;;;;10.13;6.50;;;19.10;99.90;;;;;;5053453;28;20378;-77
2022/09/06 03:38:38;;;;;;;10.70;6.07;;;19.20;99.90;;;;;;5052107;28;20052;-77
2022/09/06 03:41:04;;;;;;;11.95;6.35;;;19.10;99.90;;;;;;5052046;28;20033;-77
2022/09/06 03:43:31;;;;;;;10.60;5.00;;;19.00;99.90;;;;;;5053655;28;20021;-76
2022/09/06 03:45:57;;;;;;;7.35;4.85;;;19.00;99.90;;;;;;5053241;28;20112;-77
2022/09/06 03:48:25;;;;;;;8.82;5.53;;;19.00;99.90;;;;;;5053353;28;20033;-77
2022/09/06 03:50:53;;;;;;;8.90;5.82;;;19.10;99.90;;;;;;5053164;28;20386;-77
2022/09/06 03:53:20;;;;;;;7.03;5.38;;;19.30;99.90;;;;;;5051756;28;20114;-77
2022/09/06 03:55:54;;;;;;;9.02;6.00;;;19.10;99.90;;;;;;5052366;28;20033;-77
2022/09/06 03:58:21;;;;;;;6.60;5.30;;;19.00;99.90;;;;;;5048922;28;20059;-77
2022/09/06 04:00:47;;;;;;;10.38;5.22;;;19.00;99.90;;;;;;5052011;28;20089;-77
2022/09/06 04:03:13;;;;;;;7.45;5.07;;;19.00;99.90;;;;;;5051677;28;20029;-77
2022/09/06 04:05:39;;;;;;;7.13;5.22;;;18.90;99.90;;;;;;5053138;28;20025;-77
2022/09/06 04:08:05;;;;;;;8.93;6.03;;;18.90;99.90;;;;;;5053083;28;20033;-77
2022/09/06 04:10:32;;;;;;;11.23;5.85;;;18.80;99.90;;;;;;5052829;28;20051;-77
2022/09/06 04:12:58;;;;;;;9.27;5.93;;;18.90;99.90;;;;;;5051765;28;20548;-77
2022/09/06 04:15:24;;;;;;;8.43;6.03;;;18.90;99.90;;;;;;5068286;28;20123;-77
2022/09/06 04:17:49;;;;;;;9.45;6.47;;;18.70;99.90;;;;;;5052855;28;20461;-77
2022/09/06 04:20:16;;;;;;;10.52;6.28;;;19.10;99.90;;;;;;5051158;28;20040;-77
2022/09/06 04:22:42;;;;;;;9.07;6.07;;;19.10;99.90;;;;;;5051634;28;20025;-77
2022/09/06 04:25:08;;;;;;;13.38;7.20;;;19.10;99.90;;;;;;5052611;28;20025;-77
2022/09/06 04:27:34;;;;;;;9.98;5.85;;;19.10;99.90;;;;;;5052606;28;20071;-77
2022/09/06 04:30:00;;;;;;;6.72;5.82;;;19.00;99.90;;;;;;5051474;28;20029;-77
2022/09/06 04:32:26;;;;;;;6.85;5.90;;;19.10;99.90;;;;;;5052524;28;20033;-77
2022/09/06 04:34:52;;;;;;;13.40;6.50;;;19.00;99.90;;;;;;5052379;28;20032;-77
2022/09/06 04:37:18;;;;;;;7.85;5.75;;;19.00;99.90;;;;;;5052406;28;20029;-77
2022/09/06 04:39:47;;;;;;;12.25;6.85;;;19.00;99.90;;;;;;5052617;28;20017;-77
2022/09/06 04:42:14;;;;;;;11.43;7.10;;;18.90;99.90;;;;;;5051355;28;20123;-77
2022/09/06 04:44:41;;;;;;;8.82;6.57;;;19.00;99.90;;;;;;5052607;28;20082;-77
2022/09/06 04:47:13;;;;;;;10.80;6.38;;;19.00;99.90;;;;;;5052626;28;20108;-77
2022/09/06 04:49:39;;;;;;;8.55;6.40;;;19.00;99.90;;;;;;5052095;28;20029;-77
2022/09/06 04:52:05;;;;;;;10.38;6.40;;;18.90;99.90;;;;;;5052360;28;20037;-77
2022/09/06 04:54:31;;;;;;;11.15;6.13;;;18.80;99.90;;;;;;5052251;28;20025;-77
2022/09/06 04:56:57;;;;;;;6.40;5.80;;;18.90;99.90;;;;;;5052149;28;20507;-77
2022/09/06 04:59:22;;;;;;;13.20;6.25;;;18.90;99.90;;;;;;5052447;28;20037;-77
2022/09/06 05:01:48;;;;;;;8.38;5.85;;;18.70;99.90;;;;;;5052218;28;20367;-77
2022/09/06 05:04:14;;;;;;;11.20;6.68;;;18.80;99.90;;;;;;5051509;28;20027;-76
2022/09/06 05:06:40;;;;;;;9.55;6.28;;;18.80;99.90;;;;;;5051493;28;20028;-77
2022/09/06 05:09:07;;;;;;;10.23;6.20;;;18.80;99.90;;;;;;5055737;28;20025;-77
2022/09/06 05:11:33;;;;;;;14.30;6.40;;;18.80;99.90;;;;;;5056450;28;20029;-77
2022/09/06 05:13:58;;;;;;;11.35;6.82;;;18.90;99.90;;;;;;5054704;28;20025;-77
2022/09/06 05:16:24;;;;;;;10.10;6.07;;;19.00;99.90;;;;;;5055117;28;20021;-77
2022/09/06 05:18:50;;;;;;;11.18;7.05;;;19.10;99.90;;;;;;5054555;28;20032;-77
2022/09/06 05:21:16;;;;;;;10.10;6.13;;;19.00;99.90;;;;;;5038158;28;20047;-77
2022/09/06 05:23:42;;;;;;;8.65;6.07;;;19.00;99.90;;;;;;5054353;28;20090;-77
2022/09/06 05:26:08;;;;;;;10.02;6.53;;;19.10;99.90;;;;;;5056442;28;20053;-77
2022/09/06 05:28:34;;;;;;;12.30;6.47;;;18.90;99.90;;;;;;5056092;28;20106;-77
2022/09/06 05:31:11;;;;;;;9.43;5.53;;;18.90;99.90;;;;;;5054699;28;20033;-76
2022/09/06 05:33:38;;;;;;;8.32;6.28;;;18.70;99.90;;;;;;5054466;28;20133;-76
2022/09/06 05:36:05;;;;;;;15.25;7.22;;;18.80;99.90;;;;;;5055323;28;20017;-77
2022/09/06 05:38:31;;;;;;;14.38;7.07;;;19.00;99.90;;;;;;5056074;28;20174;-77
2022/09/06 05:40:56;;;;;;;12.70;6.13;;;18.90;99.90;;;;;;5055525;28;20119;-77
2022/09/06 05:43:22;;;;;;;8.48;6.40;;;18.70;99.90;;;;;;5055714;28;20033;-76
2022/09/06 05:45:48;;;;;;;7.22;6.30;;;18.70;99.90;;;;;;5054704;28;20096;-77
2022/09/06 05:48:14;;;;;;;9.68;6.28;;;18.70;99.90;;;;;;5055503;28;20081;-77
2022/09/06 05:50:41;;;;;;;12.63;6.57;;;18.70;99.90;;;;;;5055743;28;20066;-77
2022/09/06 05:53:07;;;;;;;12.00;6.10;;;18.70;99.90;;;;;;5054080;28;20100;-77
2022/09/06 05:55:32;;;;;;;9.50;6.45;;;18.70;99.90;;;;;;5055006;28;20091;-77
2022/09/06 05:57:58;;;;;;;14.18;7.57;;;18.80;99.90;;;;;;5054119;28;20043;-77
2022/09/06 06:00:24;;;;;;;9.98;7.53;;;19.00;99.90;;;;;;5055121;28;20060;-77
2022/09/06 06:02:51;;;;;;;13.20;8.02;;;19.00;99.90;;;;;;5041743;28;20056;-77
2022/09/06 06:05:17;;;;;;;12.48;8.05;;;19.20;99.90;;;;;;5055519;28;20021;-77
2022/09/06 06:07:43;;;;;;;11.80;8.95;;;18.90;99.90;;;;;;5054104;28;20040;-76
2022/09/06 06:10:10;;;;;;;13.60;8.40;;;18.80;99.90;;;;;;5054370;28;20025;-75
2022/09/06 06:12:36;;;;;;;16.42;9.60;;;18.90;99.90;;;;;;5052900;28;20036;-75
2022/09/06 06:15:04;;;;;;;13.38;9.30;;;19.10;99.90;;;;;;5064299;28;20021;-76
2022/09/06 06:17:30;;;;;;;15.18;9.27;;;19.10;99.90;;;;;;5055678;28;20602;-77
2022/09/06 06:19:57;;;;;;;16.48;8.98;;;19.10;99.90;;;;;;5053101;28;20024;-75
2022/09/06 06:22:23;;;;;;;13.10;9.75;;;19.30;99.90;;;;;;5052727;28;20028;-77
2022/09/06 06:24:49;;;;;;;18.77;11.85;;;19.50;99.90;;;;;;5054115;28;20023;-76
2022/09/06 06:27:14;;;;;;;33.05;12.57;;;19.30;99.90;;;;;;5053957;28;20040;-75
2022/09/06 06:29:40;;;;;;;18.45;13.07;;;19.10;99.90;;;;;;5053844;28;20028;-77
2022/09/06 06:32:06;;;;;;;23.08;12.52;;;19.10;99.90;;;;;;5053123;28;20013;-76
2022/09/06 06:34:32;;;;;;;17.60;12.75;;;19.30;99.90;;;;;;5053991;28;20025;-75
2022/09/06 06:36:57;;;;;;;27.02;12.82;;;19.40;99.90;;;;;;5053918;28;20027;-75
2022/09/06 06:39:23;;;;;;;19.63;13.32;;;19.30;99.90;;;;;;5054046;28;20036;-76
2022/09/06 06:41:49;;;;;;;28.48;11.82;;;19.20;99.90;;;;;;5053558;28;20025;-77
2022/09/06 06:44:35;;;;;;;20.88;13.00;;;19.30;99.90;;;;;;5052725;28;20033;-75
2022/09/06 06:47:01;;;;;;;20.90;10.15;;;19.60;99.90;;;;;;5052991;28;20082;-76
2022/09/06 06:49:28;;;;;;;17.52;8.80;;;19.80;99.90;;;;;;5052427;28;20039;-76
2022/09/06 06:51:54;;;;;;;18.98;8.57;;;19.80;99.90;;;;;;5052400;28;20020;-76
2022/09/06 06:54:19;;;;;;;8.93;7.38;;;19.80;99.90;;;;;;5051877;28;20045;-75
2022/09/06 06:56:45;;;;;;;15.25;6.70;;;19.60;99.90;;;;;;5053092;28;20113;-76
2022/09/06 06:59:12;;;;;;;12.15;7.15;;;19.80;99.90;;;;;;5053659;28;20052;-77
2022/09/06 07:01:38;;;;;;;11.90;7.60;;;19.80;99.90;;;;;;5061937;28;20029;-76
2022/09/06 07:04:04;;;;;;;13.00;7.32;;;19.80;99.90;;;;;;5053528;28;20024;-76
2022/09/06 07:06:47;;;;;;;12.20;6.75;;;19.80;99.90;;;;;;5053207;28;20037;-75
2022/09/06 07:09:15;;;;;;;17.70;7.38;;;20.00;99.90;;;;;;5042903;28;20036;-75
2022/09/06 07:11:41;;;;;;;9.38;6.78;;;19.90;99.90;;;;;;5053001;28;20035;-78
2022/09/06 07:14:07;;;;;;;13.23;7.28;;;20.10;99.90;;;;;;5055167;28;20026;-78
2022/09/06 07:16:33;;;;;;;12.93;6.43;;;20.00;99.90;;;;;;5049431;28;20036;-78
2022/09/06 07:18:59;;;;;;;7.50;6.22;;;20.00;99.90;;;;;;5044674;28;20432;-82
2022/09/06 07:21:25;;;;;;;15.02;6.93;;;20.00;99.90;;;;;;5057838;28;20045;-81
2022/09/06 07:23:55;;;;;;;13.70;6.35;;;20.00;99.90;;;;;;5053807;28;20032;-82
2022/09/06 07:26:23;;;;;;;14.88;6.57;;;20.30;99.90;;;;;;5053633;28;20098;-82
2022/09/06 07:28:57;;;;;;;9.45;5.43;;;20.30;99.90;;;;;;5053263;28;20061;-82
2022/09/06 07:31:24;;;;;;;11.90;5.15;;;20.30;99.90;;;;;;5053330;28;20037;-82
2022/09/06 07:33:50;;;;;;;7.57;4.72;;;20.30;99.90;;;;;;5053824;28;20025;-82
2022/09/06 07:36:16;;;;;;;14.27;5.72;;;20.20;99.90;;;;;;5054031;28;20120;-82
2022/09/06 07:38:46;;;;;;;16.23;6.00;;;20.30;99.90;;;;;;5052444;28;20437;-82
2022/09/06 07:41:12;;;;;;;14.50;5.68;;;20.10;99.90;;;;;;5052999;28;20115;-81
2022/09/06 07:43:38;;;;;;;16.25;6.20;;;20.40;99.90;;;;;;5053197;28;20111;-82
2022/09/06 07:46:14;;;;;;;16.48;5.82;;;20.50;99.90;;;;;;5053439;28;20107;-81
2022/09/06 07:48:42;;;;;;;13.65;6.20;;;20.40;99.90;;;;;;5053493;28;20021;-81
2022/09/06 07:51:16;;;;;;;10.52;5.85;;;20.50;99.90;;;;;;5053363;28;20025;-82
2022/09/06 07:53:49;;;;;;;11.90;6.07;;;20.70;99.90;;;;;;5053069;28;20037;-82
2022/09/06 07:56:15;;;;;;;18.13;6.40;;;20.60;99.90;;;;;;5052708;28;20035;-82
2022/09/06 07:58:41;;;;;;;8.75;5.60;;;20.50;99.90;;;;;;5052965;28;20025;-81
2022/09/06 08:01:30;;;;;;;10.13;5.38;;;20.70;99.90;;;;;;5052841;28;20123;-82
2022/09/06 08:04:07;;;;;;;16.42;6.03;;;21.10;99.90;;;;;;5052883;28;20100;-83
2022/09/06 08:06:36;;;;;;;10.15;5.22;;;21.40;99.90;;;;;;5053113;28;20350;-82
2022/09/06 08:09:05;;;;;;;11.63;5.55;;;21.40;99.90;;;;;;5053139;28;20021;-81
2022/09/06 08:11:32;;;;;;;8.73;5.60;;;21.30;99.90;;;;;;5052914;28;20033;-82
2022/09/06 08:13:59;;;;;;;8.77;4.85;;;21.40;99.90;;;;;;5052559;28;20019;-83
2022/09/06 08:16:27;;;;;;;10.35;4.95;;;21.20;99.90;;;;;;5052803;28;20025;-82
2022/09/06 08:18:58;;;;;;;10.55;5.40;;;21.20;99.90;;;;;;5052764;28;20028;-82
2022/09/06 08:21:29;;;;;;;12.02;5.65;;;21.20;99.90;;;;;;5052744;28;20033;-83
2022/09/06 08:24:00;;;;;;;11.77;5.90;;;21.40;99.90;;;;;;5052654;28;20036;-82
2022/09/06 08:26:28;;;;;;;8.75;5.18;;;21.50;99.90;;;;;;5052994;28;20445;-83
2022/09/06 08:28:59;;;;;;;12.75;5.03;;;21.70;99.90;;;;;;5052518;28;20028;-82
2022/09/06 08:31:27;;;;;;;15.50;5.83;;;21.90;99.90;;;;;;5052760;28;20040;-82
2022/09/06 08:33:54;;;;;;;11.02;5.30;;;21.90;99.90;;;;;;5052637;28;20324;-82
2022/09/06 08:36:21;;;;;;;10.13;4.78;;;22.20;99.90;;;;;;5051629;28;20028;-82
2022/09/06 08:38:47;;;;;;;18.30;6.88;;;22.10;99.90;;;;;;5052301;28;20037;-83
2022/09/06 08:41:13;;;;;;;11.43;4.93;;;21.90;99.90;;;;;;5050864;28;20053;-82
2022/09/06 08:43:49;;;;;;;13.45;5.10;;;21.90;99.90;;;;;;5052080;28;20029;-82
2022/09/06 08:46:21;;;;;;;8.80;5.45;;;21.90;99.90;;;;;;5067717;28;20035;-82
2022/09/06 08:48:48;;;;;;;6.80;5.05;;;22.00;99.90;;;;;;5052514;28;20029;-81
2022/09/06 08:51:19;;;;;;;12.77;5.65;;;22.10;99.90;;;;;;5052255;28;20870;-82
2022/09/06 08:53:45;;;;;;;;;;;22.30;99.90;;;;;;5052181;28;20060;-82
2022/09/06 08:56:18;;;;;;;10.60;5.82;;;22.40;99.90;;;;;;5052079;28;20001;-81
2022/09/06 08:59:00;;;;;;;12.98;5.93;;;22.60;99.90;;;;;;5052397;28;20028;-82
2022/09/06 09:01:55;;;;;;;12.68;5.28;;;22.70;99.90;;;;;;5050829;28;20048;-82
2022/09/06 09:04:24;;;;;;;8.57;5.50;;;22.80;99.90;;;;;;5041669;28;20080;-83
2022/09/06 09:06:57;;;;;;;12.35;4.95;;;22.70;99.90;;;;;;5052052;28;20094;-82
2022/09/06 09:09:26;;;;;;;13.77;5.38;;;22.90;99.90;;;;;;5052168;28;20029;-82
2022/09/06 09:11:52;;;;;;;9.95;4.78;;;23.10;99.90;;;;;;5052005;28;20032;-81
2022/09/06 09:14:28;;;;;;;9.65;4.55;;;23.20;99.90;;;;;;5051001;28;20033;-82
2022/09/06 09:17:02;;;;;;;11.73;5.15;;;23.00;99.90;;;;;;5052137;28;20033;-82
2022/09/06 09:19:32;;;;;;;8.60;4.68;;;22.90;99.90;;;;;;5052174;28;20021;-82
2022/09/06 09:21:58;;;;;;;6.97;5.15;;;23.00;99.90;;;;;;5050777;28;20112;-82
2022/09/06 09:24:24;;;;;;;7.32;4.80;;;22.90;99.90;;;;;;5052023;28;20108;-82
2022/09/06 09:26:59;;;;;;;13.77;5.03;;;23.00;99.90;;;;;;5050571;28;20061;-82
2022/09/06 09:29:25;;;;;;;16.63;5.38;;;23.20;99.90;;;;;;5051986;28;20025;-82
2022/09/06 09:31:55;;;;;;;10.40;4.53;;;23.70;99.90;;;;;;5050832;28;20033;-82
2022/09/06 09:34:32;;;;;;;8.95;4.50;;;23.80;99.90;;;;;;5051618;28;20025;-83
2022/09/06 09:37:20;;;;;;;9.82;5.10;;;24.10;99.90;;;;;;5052043;28;20029;-82
2022/09/06 09:39:48;;;;;;;13.65;4.55;;;23.90;99.90;;;;;;5051661;28;20029;-83
2022/09/06 09:42:32;;;;;;;11.38;4.85;;;24.30;99.90;;;;;;5052069;28;20048;-82
2022/09/06 09:45:00;;;;;;;9.68;3.88;;;24.40;99.90;;;;;;5051997;28;20013;-82
2022/09/06 09:47:28;;;;;;;7.32;3.60;;;24.70;99.90;;;;;;5051801;28;20017;-83
2022/09/06 09:49:55;;;;;;;9.32;3.63;;;24.60;99.90;;;;;;5052025;28;20029;-82
2022/09/06 09:52:29;;;;;;;8.23;4.70;;;24.40;99.90;;;;;;5051994;28;20037;-82
2022/09/06 09:55:04;;;;;;;8.77;3.17;;;24.80;99.90;;;;;;5053020;28;20021;-82
2022/09/06 09:57:46;;;;;;;10.25;3.72;;;24.90;99.90;;;;;;5055122;28;20535;-83
2022/09/06 10:00:13;;;;;;;6.47;3.10;;;25.50;99.90;;;;;;5055177;28;20029;-82
2022/09/06 10:02:40;;;;;;;8.65;3.13;;;25.40;99.90;;;;;;5055040;28;20503;-83
2022/09/06 10:05:14;;;;;;;7.20;3.17;;;25.30;99.90;;;;;;5055062;28;20036;-83
2022/09/06 10:07:52;;;;;;;7.65;2.85;;;25.00;99.90;;;;;;5055189;28;20036;-82
2022/09/06 10:10:29;;;;;;;10.77;3.05;;;25.00;99.90;;;;;;5054353;28;20029;-82
2022/09/06 10:13:22;;;;;;;6.18;2.72;;;24.90;99.90;;;;;;5054869;28;20039;-82
2022/09/06 10:15:50;;;;;;;5.72;2.63;;;25.40;99.90;;;;;;5054965;28;20041;-82
2022/09/06 10:18:41;;;;;;;8.15;2.58;;;25.40;99.90;;;;;;5053837;28;20381;-82
2022/09/06 10:21:18;;;;;;;17.00;3.53;;;25.60;99.90;;;;;;5042389;28;20040;-82
2022/09/06 10:23:59;;;;;;;9.15;2.60;;;25.90;99.90;;;;;;5054420;28;20033;-83
2022/09/06 10:26:39;;;;;;;5.13;2.47;;;25.80;99.90;;;;;;5054977;28;20129;-82
2022/09/06 10:29:08;;;;;;;11.48;2.88;;;25.80;99.90;;;;;;5053366;28;20086;-82
2022/09/06 10:31:50;;;;;;;6.18;2.30;;;26.10;99.90;;;;;;5053535;28;20045;-82
2022/09/06 10:34:34;;;;;;;9.02;2.33;;;25.70;99.90;;;;;;5053422;28;20380;-82
2022/09/06 10:37:25;;;;;;;10.13;2.60;;;26.00;99.90;;;;;;5054194;28;20095;-82
2022/09/06 10:40:03;;;;;;;5.72;2.60;;;26.20;99.90;;;;;;5054504;28;20052;-82
2022/09/06 10:42:34;;;;;;;7.68;2.35;;;25.70;99.90;;;;;;5069691;28;20033;-82
2022/09/06 10:45:21;;;;;;;6.13;2.50;;;25.80;99.90;;;;;;5054474;28;20457;-82
2022/09/06 10:47:59;;;;;;;8.75;2.13;;;25.90;99.90;;;;;;5053137;28;20029;-82
2022/09/06 10:50:33;;;;;;;5.55;2.25;;;26.20;99.90;;;;;;5054226;28;20025;-82
2022/09/06 10:53:24;;;;;;;8.10;1.98;;;26.70;99.90;;;;;;5054378;28;20457;-81
2022/09/06 10:56:06;;;;;;;6.85;2.00;;;26.50;99.90;;;;;;5053596;28;20468;-82
2022/09/06 10:59:20;;;;;;;7.03;2.20;;;26.10;99.90;;;;;;5051878;28;20043;-82
2022/09/06 11:02:01;;;;;;;8.45;2.35;;;26.00;99.90;;;;;;5050491;28;20489;-82
2022/09/06 11:04:33;;;;;;;5.93;1.80;;;26.10;99.90;;;;;;5054413;28;20061;-82
2022/09/06 11:07:04;;;;;;;9.43;2.28;;;26.10;99.90;;;;;;5053107;28;20389;-82
2022/09/06 11:09:48;;;;;;;3.75;1.90;;;26.40;99.90;;;;;;5054125;28;20178;-82
2022/09/06 11:12:30;;;;;;;8.13;2.60;;;26.70;99.90;;;;;;5053785;28;20033;-82
2022/09/06 11:14:56;;;;;;;6.18;3.08;;;26.60;99.90;;;;;;5053988;28;20029;-83
2022/09/06 11:17:42;;;;;;;8.80;2.00;;;26.80;99.90;;;;;;5053956;28;20021;-82
2022/09/06 11:20:23;;;;;;;5.30;2.35;;;27.10;99.70;;;;;;5054071;28;20037;-82
2022/09/06 11:23:15;;;;;;;6.93;2.60;;;27.20;99.90;;;;;;5041035;28;20025;-82
2022/09/06 11:25:59;;;;;;;5.55;2.70;;;27.60;99.00;;;;;;5053462;28;20021;-82
2022/09/06 11:28:48;;;;;;;9.23;2.90;;;27.50;98.90;;;;;;5052670;28;20031;-81
2022/09/06 11:31:32;;;;;;;4.30;2.40;;;27.50;98.80;;;;;;5040477;28;20032;-81
2022/09/06 11:34:09;;;;;;;8.48;2.22;;;27.40;99.30;;;;;;5053433;28;20067;-82
2022/09/06 11:36:50;;;;;;;8.63;2.15;;;28.20;98.20;;;;;;5053204;28;20029;-82
2022/09/06 11:39:25;;;;;;;4.60;2.20;;;28.70;97.30;;;;;;5053640;28;20107;-82
2022/09/06 11:41:51;;;;;;;9.00;2.25;;;29.10;97.30;;;;;;5053141;28;20037;-82
2022/09/06 11:44:55;;;;;;;5.63;2.50;;;29.40;96.80;;;;;;5052095;28;20032;-81
2022/09/06 11:47:43;;;;;;;11.57;2.80;;;29.10;96.70;;;;;;5032433;28;20045;-82
2022/09/06 11:50:25;;;;;;;8.32;2.63;;;29.10;96.70;;;;;;5053181;28;20025;-82
2022/09/06 11:52:58;;;;;;;8.65;3.05;;;29.40;96.10;;;;;;5053567;28;20028;-81
2022/09/06 11:55:48;;;;;;;7.18;2.30;;;29.00;96.30;;;;;;5063307;28;20032;-82
2022/09/06 11:58:16;;;;;;;6.22;2.45;;;29.50;96.50;;;;;;5053143;28;20108;-82
2022/09/06 12:01:05;;;;;;;8.43;2.30;;;29.90;95.00;;;;;;5053189;28;20080;-82
2022/09/06 12:03:46;;;;;;;10.40;2.50;;;30.00;95.00;;;;;;5052554;28;20467;-82
2022/09/06 12:06:21;;;;;;;6.25;2.92;;;30.80;94.10;;;;;;5053010;28;20036;-82
2022/09/06 12:08:51;;;;;;;7.97;2.38;;;30.70;93.90;;;;;;5052751;28;20416;-82
2022/09/06 12:11:32;;;;;;;8.05;2.20;;;31.00;93.90;;;;;;5053057;28;20117;-82
2022/09/06 12:14:24;;;;;;;5.88;2.60;;;31.50;92.80;;;;;;5052658;28;20032;-82
2022/09/06 12:16:56;;;;;;;12.50;2.63;;;31.00;92.90;;;;;;5052169;28;20029;-82
2022/09/06 12:19:40;;;;;;;6.35;1.90;;;32.10;92.20;;;;;;5052713;28;20074;-83
2022/09/06 12:22:30;;;;;;;10.00;2.20;;;32.80;92.00;;;;;;5052896;28;20098;-82
2022/09/06 12:25:01;;;;;;;7.13;2.40;;;32.70;91.40;;;;;;5052749;28;20044;-83
2022/09/06 12:27:38;;;;;;;7.47;2.28;;;32.50;91.30;;;;;;5052568;28;20040;-83
2022/09/06 12:30:10;;;;;;;7.43;1.83;;;33.20;90.90;;;;;;5052848;28;20025;-83
2022/09/06 12:32:48;;;;;;;7.80;2.40;;;33.80;89.70;;;;;;5051159;28;20465;-83
2022/09/06 12:35:20;;;;;;;5.65;2.00;;;33.80;89.50;;;;;;5052376;28;20037;-83
2022/09/06 12:37:53;;;;;;;5.38;1.92;;;33.70;89.90;;;;;;5052483;28;20462;-83
2022/09/06 12:40:20;;;;;;;4.88;2.15;;;34.50;88.00;;;;;;5052604;28;20083;-83
2022/09/06 12:42:48;;;;;;;7.28;2.05;;;34.50;87.70;;;;;;5034373;28;20021;-82
2022/09/06 12:45:14;;;;;;;3.10;1.95;;;33.30;88.50;;;;;;5052513;28;20108;-82
2022/09/06 12:47:40;;;;;;;5.10;2.20;;;33.00;89.60;;;;;;5051962;28;20025;-78
2022/09/06 12:50:23;;;;;;;4.30;2.20;;;33.00;88.60;;;;;;5052684;28;20033;-73
2022/09/06 12:52:55;;;;;;;6.07;2.10;;;35.10;87.10;;;;;;5052091;28;20033;-73
2022/09/06 12:55:33;;;;;;;7.72;1.80;;;35.20;85.00;;;;;;5049887;28;20060;-72
2022/09/06 12:58:10;;;;;;;4.00;1.50;;;37.20;82.60;;;;;;5032601;28;20108;-72
2022/09/06 13:00:45;;;;;;;2.72;1.10;;;33.50;82.60;;;;;;5049836;28;20497;-72
2022/09/06 13:03:37;;;;;;;4.15;1.40;;;34.10;83.40;;;;;;5051036;28;20113;-72
2022/09/06 13:06:04;;;;;;;3.88;1.20;;;32.90;82.40;;;;;;5040927;28;20112;-72